Time;durP1;ratioP1;P1;durP2;ratioP2;P2;SDS_P1;SDS_P2;PMS_P1;PMS_P2;Temp;Humidity;BMP_temperature;BMP_pressure;BME280_temperature;BME280_humidity;BME280_pressure;Samples;Min_cycle;Max_cycle;Signal;HPM_P1;HPM_P2
2022/03/27 00:01:14;;;;;;;4.53;1.52;;;10.30;99.90;;;;;;5048649;28;20473;-62
2022/03/27 00:03:40;;;;;;;2.15;1.40;;;10.30;99.90;;;;;;5045529;28;20100;-59
2022/03/27 00:06:06;;;;;;;4.95;1.50;;;10.30;99.90;;;;;;5031621;28;20028;-59
2022/03/27 00:08:31;;;;;;;2.13;1.45;;;10.30;99.90;;;;;;5048771;28;20405;-60
2022/03/27 00:13:41;;;;;;;3.92;2.05;;;10.30;99.90;;;;;;5045237;28;20055;-62
2022/03/27 00:16:09;;;;;;;3.13;2.00;;;10.40;99.90;;;;;;5049190;28;20064;-59
2022/03/27 00:18:35;;;;;;;2.25;1.52;;;10.40;99.90;;;;;;5048930;28;20128;-59
2022/03/27 00:21:01;;;;;;;2.40;1.40;;;10.40;99.90;;;;;;5048539;28;20037;-60
2022/03/27 00:23:26;;;;;;;1.90;1.42;;;10.40;99.90;;;;;;5048250;28;20036;-60
2022/03/27 00:25:52;;;;;;;2.35;1.40;;;10.30;99.90;;;;;;5048533;28;20580;-60
2022/03/27 00:28:18;;;;;;;3.30;1.60;;;10.30;99.90;;;;;;5048436;28;20056;-61
2022/03/27 00:30:43;;;;;;;2.92;1.70;;;10.40;99.90;;;;;;5048707;28;20041;-60
2022/03/27 00:33:09;;;;;;;3.55;1.80;;;10.30;99.90;;;;;;5049287;28;20025;-60
2022/03/27 00:35:35;;;;;;;2.85;2.13;;;10.40;99.90;;;;;;5030856;28;20036;-60
2022/03/27 00:38:00;;;;;;;3.97;1.40;;;10.40;99.90;;;;;;5048854;28;20032;-60
2022/03/27 00:40:26;;;;;;;4.57;2.13;;;10.40;99.90;;;;;;5048499;28;20041;-60
2022/03/27 00:42:51;;;;;;;2.58;1.85;;;10.40;99.90;;;;;;5050189;28;20033;-60
2022/03/27 00:45:17;;;;;;;3.10;1.73;;;10.30;99.90;;;;;;5030696;28;20037;-61
2022/03/27 00:47:44;;;;;;;2.92;1.60;;;10.30;99.90;;;;;;5048846;28;20037;-61
2022/03/27 00:50:10;;;;;;;3.33;1.75;;;10.30;99.90;;;;;;5048722;28;20033;-60
2022/03/27 00:52:36;;;;;;;4.47;2.10;;;10.30;99.90;;;;;;5048510;28;20037;-59
2022/03/27 00:55:02;;;;;;;7.28;2.38;;;10.30;99.90;;;;;;5049305;28;20116;-61
2022/03/27 00:57:27;;;;;;;6.32;2.90;;;10.20;99.90;;;;;;5029733;28;20731;-60
2022/03/27 00:59:53;;;;;;;6.65;2.72;;;10.20;99.90;;;;;;5030651;28;20036;-59
2022/03/27 01:02:20;;;;;;;4.55;2.72;;;10.10;99.90;;;;;;5030615;28;20029;-61
2022/03/27 01:04:46;;;;;;;5.00;2.28;;;10.10;99.90;;;;;;5048994;28;20473;-61
2022/03/27 01:07:20;;;;;;;5.50;2.90;;;10.00;99.90;;;;;;5048647;28;20063;-62
2022/03/27 01:09:47;;;;;;;9.27;3.10;;;10.00;99.90;;;;;;5048304;28;20370;-59
2022/03/27 01:12:22;;;;;;;5.50;2.53;;;9.90;99.90;;;;;;5048531;28;20405;-60
2022/03/27 01:14:52;;;;;;;8.00;3.08;;;9.90;99.90;;;;;;5048734;28;20045;-59
2022/03/27 01:17:19;;;;;;;;;;;9.80;99.90;;;;;;5048690;28;20033;-59
2022/03/27 01:19:50;;;;;;;5.43;2.85;;;9.80;99.90;;;;;;5048908;28;19920;-59
2022/03/27 01:22:18;;;;;;;6.65;3.80;;;9.80;99.90;;;;;;5048018;28;20112;-60
2022/03/27 01:24:44;;;;;;;9.38;3.63;;;9.70;99.90;;;;;;5048936;28;20033;-59
2022/03/27 01:27:11;;;;;;;5.65;3.03;;;9.60;99.90;;;;;;5048555;28;20039;-61
2022/03/27 01:29:37;;;;;;;6.00;3.20;;;9.70;99.90;;;;;;5048431;28;20116;-60
2022/03/27 01:32:04;;;;;;;6.95;3.75;;;9.60;99.90;;;;;;5048188;28;20485;-59
2022/03/27 01:34:31;;;;;;;8.88;4.18;;;9.60;99.90;;;;;;5050928;28;20060;-60
2022/03/27 01:37:00;;;;;;;7.85;3.65;;;9.60;99.90;;;;;;5052161;28;20400;-60
2022/03/27 01:39:25;;;;;;;11.45;3.40;;;9.60;99.90;;;;;;5051803;28;20040;-60
2022/03/27 01:41:51;;;;;;;7.40;3.65;;;9.60;99.90;;;;;;5052722;28;20021;-60
2022/03/27 01:44:18;;;;;;;8.32;3.92;;;9.60;99.90;;;;;;5051591;28;20045;-61
2022/03/27 01:46:44;;;;;;;7.85;3.65;;;9.50;99.90;;;;;;5034263;28;20028;-60
2022/03/27 01:49:12;;;;;;;6.85;3.95;;;9.50;99.90;;;;;;5033775;28;20073;-60
2022/03/27 01:51:39;;;;;;;7.60;3.83;;;9.50;99.90;;;;;;5033426;28;20036;-60
2022/03/27 01:54:05;;;;;;;6.85;3.65;;;9.50;99.90;;;;;;5048118;28;20033;-61
2022/03/27 01:56:31;;;;;;;7.78;3.40;;;9.40;99.90;;;;;;5033665;28;20036;-60
2022/03/27 01:58:57;;;;;;;9.20;4.32;;;9.40;99.90;;;;;;5051704;28;20098;-60
2022/03/27 02:01:23;;;;;;;8.23;4.10;;;9.30;99.90;;;;;;5050888;28;20404;-59
2022/03/27 02:03:49;;;;;;;9.93;4.38;;;9.30;99.90;;;;;;5052069;28;20037;-62
2022/03/27 02:06:15;;;;;;;7.03;4.18;;;9.30;99.90;;;;;;5051408;28;20037;-62
2022/03/27 02:08:44;;;;;;;9.27;4.57;;;9.40;99.90;;;;;;5051404;28;20094;-60
2022/03/27 02:11:10;;;;;;;8.85;4.38;;;9.30;99.90;;;;;;5051166;28;20032;-61
2022/03/27 02:13:36;;;;;;;10.88;5.07;;;9.40;99.90;;;;;;5033284;28;20548;-62
2022/03/27 02:16:03;;;;;;;10.27;5.00;;;9.30;99.90;;;;;;5051562;28;20037;-61
2022/03/27 02:18:30;;;;;;;8.70;4.45;;;9.20;99.90;;;;;;5050750;28;20110;-61
2022/03/27 02:20:56;;;;;;;9.20;5.28;;;9.20;99.90;;;;;;5050577;28;20099;-61
2022/03/27 02:23:23;;;;;;;8.38;3.88;;;9.20;99.90;;;;;;5049948;28;20041;-61
2022/03/27 02:25:49;;;;;;;11.32;3.97;;;9.10;99.90;;;;;;5051500;28;20112;-63
2022/03/27 02:28:15;;;;;;;8.48;4.25;;;9.10;99.90;;;;;;5050647;28;20037;-62
2022/03/27 02:30:41;;;;;;;10.02;4.60;;;9.00;99.90;;;;;;5033155;28;20036;-61
2022/03/27 02:33:07;;;;;;;8.75;4.43;;;9.00;99.90;;;;;;5051224;28;20029;-62
2022/03/27 02:35:33;;;;;;;10.07;4.65;;;9.00;99.90;;;;;;5050787;28;20078;-61
2022/03/27 02:37:59;;;;;;;7.57;3.90;;;9.00;99.90;;;;;;5051146;28;20144;-62
2022/03/27 02:40:26;;;;;;;7.82;4.35;;;9.00;99.90;;;;;;5050378;28;20029;-62
2022/03/27 02:42:52;;;;;;;7.80;4.38;;;9.00;99.90;;;;;;5033683;28;20032;-61
2022/03/27 02:45:18;;;;;;;9.38;5.28;;;8.90;99.90;;;;;;5031847;28;20142;-61
2022/03/27 02:47:43;;;;;;;9.45;4.55;;;8.90;99.90;;;;;;5050784;28;20463;-62
2022/03/27 02:50:10;;;;;;;13.15;4.38;;;8.80;99.90;;;;;;5050577;28;20040;-61
2022/03/27 02:52:36;;;;;;;9.20;4.70;;;8.70;99.90;;;;;;5050461;28;20033;-61
2022/03/27 02:55:02;;;;;;;10.65;4.93;;;8.70;99.90;;;;;;5050712;28;20195;-61
2022/03/27 02:57:27;;;;;;;7.90;3.40;;;8.60;99.90;;;;;;5050054;28;20493;-61
2022/03/27 02:59:53;;;;;;;9.20;3.53;;;8.60;99.90;;;;;;5050193;28;20032;-61
2022/03/27 03:02:20;;;;;;;6.18;3.53;;;8.50;99.90;;;;;;5050229;28;20397;-63
2022/03/27 03:04:46;;;;;;;7.63;3.83;;;8.40;99.90;;;;;;5050584;28;20025;-61
2022/03/27 03:07:12;;;;;;;6.78;3.70;;;8.40;99.90;;;;;;5050440;28;20029;-61
2022/03/27 03:09:37;;;;;;;6.53;3.15;;;8.30;99.90;;;;;;5050119;28;20680;-62
2022/03/27 03:12:04;;;;;;;6.93;3.30;;;8.30;99.90;;;;;;5050448;28;20033;-63
2022/03/27 03:14:29;;;;;;;6.80;3.35;;;8.20;99.90;;;;;;5045754;28;20037;-61
2022/03/27 03:16:55;;;;;;;8.02;3.65;;;8.20;99.90;;;;;;5050403;28;20029;-63
2022/03/27 03:19:21;;;;;;;7.82;3.33;;;8.20;99.90;;;;;;5031986;28;20037;-61
2022/03/27 03:21:47;;;;;;;6.30;3.63;;;8.30;99.90;;;;;;5049956;28;20050;-63
2022/03/27 03:24:13;;;;;;;9.68;4.13;;;8.20;99.90;;;;;;5049219;28;20056;-62
2022/03/27 03:26:38;;;;;;;7.40;3.00;;;8.30;99.90;;;;;;5049877;28;20036;-62
2022/03/27 03:29:04;;;;;;;6.45;3.17;;;8.30;99.90;;;;;;5050014;28;20052;-60
2022/03/27 03:31:30;;;;;;;7.97;3.70;;;8.30;99.90;;;;;;5049509;28;20039;-60
2022/03/27 03:33:55;;;;;;;6.88;3.42;;;8.30;99.90;;;;;;5049981;28;20041;-62
2022/03/27 03:36:21;;;;;;;9.02;4.28;;;8.30;99.90;;;;;;5031560;28;20049;-60
2022/03/27 03:38:46;;;;;;;6.75;3.10;;;8.30;99.90;;;;;;5049743;28;20511;-60
2022/03/27 03:41:12;;;;;;;7.43;3.80;;;8.20;99.90;;;;;;5049626;28;20147;-61
2022/03/27 03:43:38;;;;;;;8.18;3.58;;;8.20;99.90;;;;;;5035614;28;20516;-62
2022/03/27 03:46:04;;;;;;;9.07;3.72;;;8.20;99.90;;;;;;5049903;28;20037;-60
2022/03/27 03:48:31;;;;;;;6.45;3.85;;;8.30;99.90;;;;;;5049343;28;20037;-59
2022/03/27 03:50:57;;;;;;;8.18;3.30;;;8.30;99.90;;;;;;5049319;28;20083;-61
2022/03/27 03:53:23;;;;;;;8.23;3.60;;;8.20;99.90;;;;;;5049061;28;20493;-62
2022/03/27 03:55:48;;;;;;;7.97;3.63;;;8.20;99.90;;;;;;5049675;28;20036;-60
2022/03/27 03:58:14;;;;;;;6.88;3.00;;;8.20;99.90;;;;;;5048745;28;20063;-59
2022/03/27 04:00:41;;;;;;;7.57;3.90;;;8.20;99.90;;;;;;5049081;28;20119;-59
2022/03/27 04:03:09;;;;;;;8.60;3.45;;;8.30;99.90;;;;;;5031919;28;20143;-60
2022/03/27 04:05:35;;;;;;;9.20;3.35;;;8.20;99.90;;;;;;5031306;28;20501;-60
2022/03/27 04:08:01;;;;;;;6.32;3.08;;;8.20;99.90;;;;;;5049241;28;20051;-60
2022/03/27 04:10:27;;;;;;;7.15;3.38;;;8.10;99.90;;;;;;5048640;28;20036;-60
2022/03/27 04:12:53;;;;;;;7.10;3.38;;;8.20;99.90;;;;;;5031669;28;20052;-59
2022/03/27 04:15:19;;;;;;;6.15;3.10;;;8.20;99.90;;;;;;5049002;28;20505;-61
2022/03/27 04:17:46;;;;;;;6.22;3.33;;;8.20;99.90;;;;;;5049272;28;20052;-61
2022/03/27 04:20:13;;;;;;;7.90;3.88;;;8.10;99.90;;;;;;5048730;28;20040;-60
2022/03/27 04:22:42;;;;;;;7.80;3.28;;;8.10;99.90;;;;;;5030865;28;20503;-61
2022/03/27 04:25:09;;;;;;;9.13;3.78;;;8.10;99.90;;;;;;5048669;28;20033;-59
2022/03/27 04:27:35;;;;;;;9.13;4.28;;;8.00;99.90;;;;;;5048650;28;20102;-60
2022/03/27 04:30:08;;;;;;;8.52;4.10;;;8.10;99.90;;;;;;5048720;28;20044;-59
2022/03/27 04:32:34;;;;;;;11.52;4.43;;;8.00;99.90;;;;;;5030460;28;20045;-60
2022/03/27 04:35:00;;;;;;;7.93;3.72;;;8.00;99.90;;;;;;5048953;28;20120;-60
2022/03/27 04:37:25;;;;;;;8.55;3.97;;;8.00;99.90;;;;;;5030632;28;20432;-61
2022/03/27 04:39:51;;;;;;;8.45;3.35;;;8.00;99.90;;;;;;5030989;28;20540;-59
2022/03/27 04:42:17;;;;;;;8.85;4.28;;;7.80;99.90;;;;;;5052195;28;20492;-61
2022/03/27 04:44:42;;;;;;;8.00;3.45;;;7.80;99.90;;;;;;5031105;28;20040;-61
2022/03/27 04:47:08;;;;;;;8.35;3.95;;;7.80;99.90;;;;;;5048991;28;20029;-60
2022/03/27 04:49:33;;;;;;;8.27;3.45;;;7.80;99.90;;;;;;5048887;28;20029;-60
2022/03/27 04:51:59;;;;;;;7.70;3.72;;;7.80;99.90;;;;;;5031177;28;20039;-60
2022/03/27 04:54:24;;;;;;;8.25;3.50;;;7.80;99.90;;;;;;5030820;28;20041;-61
2022/03/27 04:56:50;;;;;;;7.03;3.28;;;7.80;99.90;;;;;;5048856;28;20507;-61
2022/03/27 04:59:16;;;;;;;9.18;4.35;;;7.70;99.90;;;;;;5048581;28;20061;-60
2022/03/27 05:01:42;;;;;;;7.65;3.55;;;7.70;99.90;;;;;;5048233;28;20087;-60
2022/03/27 05:04:09;;;;;;;6.50;3.10;;;7.70;99.90;;;;;;5049138;28;20029;-59
2022/03/27 05:06:34;;;;;;;6.82;3.20;;;7.70;99.90;;;;;;5048313;28;20029;-61
2022/03/27 05:09:00;;;;;;;7.63;3.65;;;7.70;99.90;;;;;;5033075;28;20044;-60
2022/03/27 05:11:28;;;;;;;8.95;3.58;;;7.60;99.90;;;;;;5034866;28;20111;-61
2022/03/27 05:13:54;;;;;;;8.75;3.72;;;7.60;99.90;;;;;;5031122;28;20033;-60
2022/03/27 05:16:19;;;;;;;6.13;3.25;;;7.60;99.90;;;;;;5033746;28;20033;-61
2022/03/27 05:18:45;;;;;;;6.63;2.95;;;7.60;99.90;;;;;;5052729;28;20039;-61
2022/03/27 05:21:11;;;;;;;7.43;3.50;;;7.60;99.90;;;;;;5052424;28;20427;-60
2022/03/27 05:23:37;;;;;;;6.63;3.30;;;7.60;99.90;;;;;;5052318;28;20091;-61
2022/03/27 05:26:03;;;;;;;5.25;2.78;;;7.60;99.90;;;;;;5034221;28;20551;-61
2022/03/27 05:28:28;;;;;;;6.55;3.28;;;7.50;99.90;;;;;;5034211;28;20064;-60
2022/03/27 05:30:56;;;;;;;6.57;3.78;;;7.50;99.90;;;;;;5052086;28;20120;-59
2022/03/27 05:33:22;;;;;;;6.60;3.28;;;7.50;99.90;;;;;;5048114;28;20087;-60
2022/03/27 05:35:48;;;;;;;8.55;3.67;;;7.50;99.90;;;;;;5052428;28;20436;-60
2022/03/27 05:38:14;;;;;;;6.25;3.58;;;7.50;99.90;;;;;;5052179;28;20044;-61
2022/03/27 05:40:40;;;;;;;6.63;2.90;;;7.50;99.90;;;;;;5051413;28;20116;-61
2022/03/27 05:43:06;;;;;;;7.85;3.45;;;7.60;99.90;;;;;;5052213;28;20036;-62
2022/03/27 05:45:32;;;;;;;8.98;3.50;;;7.50;99.90;;;;;;5051463;28;20037;-60
2022/03/27 05:47:58;;;;;;;6.85;3.13;;;7.50;99.90;;;;;;5034324;28;20068;-60
2022/03/27 05:50:23;;;;;;;8.73;3.83;;;7.60;99.90;;;;;;5051214;28;20037;-59
2022/03/27 05:52:51;;;;;;;7.72;3.42;;;7.70;99.90;;;;;;5052023;28;20036;-60
2022/03/27 05:55:17;;;;;;;6.53;3.67;;;7.70;99.90;;;;;;5051787;28;20037;-60
2022/03/27 05:57:43;;;;;;;5.45;3.33;;;7.70;99.90;;;;;;5031881;28;20033;-61
2022/03/27 06:00:12;;;;;;;5.53;3.30;;;7.70;99.90;;;;;;5051719;28;20037;-60
2022/03/27 06:02:38;;;;;;;6.22;2.95;;;7.70;99.90;;;;;;5051547;28;20074;-60
2022/03/27 06:05:05;;;;;;;7.35;3.67;;;7.80;99.90;;;;;;5034510;28;20040;-60
2022/03/27 06:07:30;;;;;;;8.77;3.42;;;7.70;99.90;;;;;;5052245;28;20036;-60
2022/03/27 06:09:56;;;;;;;5.10;2.80;;;7.70;99.90;;;;;;5055494;28;20032;-61
2022/03/27 06:12:22;;;;;;;6.47;3.03;;;7.70;99.90;;;;;;5054907;28;20550;-61
2022/03/27 06:14:48;;;;;;;5.55;2.55;;;7.70;99.90;;;;;;5052164;28;20041;-60
2022/03/27 06:17:14;;;;;;;7.03;3.08;;;7.80;99.90;;;;;;5051686;28;20040;-60
2022/03/27 06:19:39;;;;;;;4.57;2.55;;;7.80;99.90;;;;;;5050054;28;20525;-61
2022/03/27 06:22:05;;;;;;;7.38;2.80;;;7.70;99.90;;;;;;5048623;28;20045;-59
2022/03/27 06:24:30;;;;;;;4.80;2.60;;;7.70;99.90;;;;;;5023796;28;20081;-60
2022/03/27 06:26:56;;;;;;;6.60;2.95;;;7.70;99.90;;;;;;5049998;28;20117;-60
2022/03/27 06:29:21;;;;;;;5.45;2.70;;;7.70;99.90;;;;;;5046134;28;20377;-61
2022/03/27 06:31:49;;;;;;;5.63;2.75;;;7.80;99.90;;;;;;5040175;28;20036;-60
2022/03/27 06:34:14;;;;;;;7.00;3.03;;;8.10;99.90;;;;;;5042614;28;20173;-60
2022/03/27 06:36:42;;;;;;;6.97;2.40;;;8.30;99.90;;;;;;5039288;28;20493;-60
2022/03/27 06:39:07;;;;;;;5.43;2.97;;;8.50;99.90;;;;;;5023552;28;20054;-60
2022/03/27 06:41:33;;;;;;;5.82;2.58;;;8.50;99.90;;;;;;5041867;28;20064;-62
2022/03/27 06:43:59;;;;;;;6.03;2.88;;;8.60;99.90;;;;;;5053683;28;20037;-60
2022/03/27 06:46:25;;;;;;;4.22;2.40;;;8.90;99.90;;;;;;5051120;28;20460;-60
2022/03/27 06:48:51;;;;;;;5.32;2.60;;;9.20;99.90;;;;;;5032791;28;20115;-60
2022/03/27 06:51:17;;;;;;;6.38;2.63;;;9.30;99.90;;;;;;5038278;28;20029;-61
2022/03/27 06:53:44;;;;;;;5.50;2.90;;;9.40;99.90;;;;;;5050093;28;20090;-60
2022/03/27 06:56:10;;;;;;;5.50;2.58;;;9.40;99.90;;;;;;5049824;28;20642;-61
2022/03/27 06:58:36;;;;;;;5.72;2.85;;;9.40;99.90;;;;;;5049387;28;20072;-61
2022/03/27 07:03:46;;;;;;;3.92;2.17;;;9.40;99.90;;;;;;5049543;28;20036;-62
2022/03/27 07:06:14;;;;;;;5.65;2.60;;;9.50;99.90;;;;;;5050041;28;20028;-59
2022/03/27 07:08:41;;;;;;;3.75;2.00;;;9.50;99.90;;;;;;5049132;28;20787;-61
2022/03/27 07:11:07;;;;;;;6.43;3.33;;;9.40;99.90;;;;;;5049524;28;20060;-60
2022/03/27 07:13:33;;;;;;;5.30;2.67;;;9.50;99.90;;;;;;5049147;28;20659;-60
2022/03/27 07:15:59;;;;;;;5.43;2.65;;;9.50;99.90;;;;;;5049414;28;20485;-59
2022/03/27 07:18:24;;;;;;;6.10;2.33;;;9.50;99.90;;;;;;5048864;28;20041;-60
2022/03/27 07:20:50;;;;;;;3.58;1.98;;;9.50;99.90;;;;;;5049430;28;20033;-60
2022/03/27 07:23:20;;;;;;;6.60;2.80;;;9.60;99.90;;;;;;5048065;28;20128;-60
2022/03/27 07:25:48;;;;;;;3.42;1.65;;;9.60;99.90;;;;;;5049453;28;20025;-62
2022/03/27 07:28:15;;;;;;;5.82;3.00;;;9.70;99.90;;;;;;5049263;28;20052;-61
2022/03/27 07:30:42;;;;;;;4.85;2.40;;;9.80;99.90;;;;;;5042031;28;20374;-60
2022/03/27 07:33:08;;;;;;;3.70;2.22;;;9.90;99.90;;;;;;5039643;28;20033;-61
2022/03/27 07:35:34;;;;;;;5.32;2.40;;;10.00;99.90;;;;;;5038416;28;20037;-60
2022/03/27 07:38:01;;;;;;;4.95;2.47;;;10.00;99.90;;;;;;5038453;28;20491;-61
2022/03/27 07:40:28;;;;;;;4.00;1.88;;;9.90;99.90;;;;;;5039692;28;20493;-60
2022/03/27 07:42:54;;;;;;;6.35;2.50;;;9.90;99.90;;;;;;5029029;28;20504;-61
2022/03/27 07:45:22;;;;;;;5.82;2.78;;;10.00;99.90;;;;;;5048928;28;20033;-59
2022/03/27 07:47:49;;;;;;;5.03;2.80;;;10.00;99.90;;;;;;5027248;28;20500;-60
2022/03/27 07:50:17;;;;;;;6.95;3.15;;;10.00;99.90;;;;;;5039070;28;20048;-63
2022/03/27 07:52:44;;;;;;;6.95;2.92;;;10.10;99.90;;;;;;5037530;28;20485;-62
2022/03/27 07:55:11;;;;;;;4.10;2.17;;;9.90;99.90;;;;;;5025113;28;20420;-61
2022/03/27 07:57:37;;;;;;;4.95;2.50;;;9.90;99.90;;;;;;5042540;28;20037;-62
2022/03/27 08:00:04;;;;;;;4.72;2.35;;;9.80;99.90;;;;;;5019348;28;20091;-60
2022/03/27 08:02:30;;;;;;;4.63;2.22;;;9.80;99.90;;;;;;5042095;28;20400;-60
2022/03/27 08:04:55;;;;;;;4.28;2.13;;;9.90;99.90;;;;;;5044544;28;20033;-64
2022/03/27 08:07:21;;;;;;;5.88;2.72;;;10.00;99.90;;;;;;5044774;28;20063;-63
2022/03/27 08:09:46;;;;;;;5.00;2.25;;;10.10;99.90;;;;;;5044378;28;20087;-61
2022/03/27 08:12:12;;;;;;;3.75;1.90;;;10.20;99.90;;;;;;5044183;28;20668;-61
2022/03/27 08:14:39;;;;;;;4.88;2.10;;;10.40;99.90;;;;;;5041413;28;20465;-62
2022/03/27 08:17:06;;;;;;;4.97;2.22;;;10.50;99.90;;;;;;5040694;28;20504;-62
2022/03/27 08:19:32;;;;;;;5.38;2.13;;;10.60;99.90;;;;;;5040326;28;20037;-60
2022/03/27 08:21:58;;;;;;;5.22;1.90;;;10.60;99.90;;;;;;5040409;28;20037;-60
2022/03/27 08:24:24;;;;;;;4.95;2.20;;;10.70;99.90;;;;;;5036846;28;20030;-63
2022/03/27 08:26:56;;;;;;;3.95;2.05;;;10.80;99.90;;;;;;5041074;28;20056;-61
2022/03/27 08:29:33;;;;;;;3.95;1.95;;;11.00;99.90;;;;;;5037546;28;20098;-63
2022/03/27 08:32:01;;;;;;;3.08;1.60;;;11.10;99.90;;;;;;5039651;28;20081;-62
2022/03/27 08:34:29;;;;;;;3.85;1.60;;;11.20;99.90;;;;;;5020817;28;20116;-62
2022/03/27 08:36:56;;;;;;;3.80;1.60;;;11.20;99.90;;;;;;5040218;28;20090;-63
2022/03/27 08:39:22;;;;;;;3.67;1.95;;;11.30;99.90;;;;;;5037773;28;20106;-63
2022/03/27 08:41:49;;;;;;;3.10;1.45;;;11.50;99.90;;;;;;5025451;28;20477;-61
2022/03/27 08:44:18;;;;;;;3.85;1.70;;;11.50;99.90;;;;;;5026710;28;20041;-61
2022/03/27 08:46:45;;;;;;;5.30;2.72;;;11.70;99.90;;;;;;5048798;28;20025;-60
2022/03/27 08:49:17;;;;;;;4.97;1.67;;;11.80;99.90;;;;;;5049172;28;20036;-64
2022/03/27 08:51:47;;;;;;;2.88;1.67;;;11.90;99.90;;;;;;5044677;28;20064;-62
2022/03/27 08:54:43;;;;;;;2.37;1.33;;;11.90;99.90;;;;;;5045401;28;20112;-62
2022/03/27 08:57:17;;;;;;;4.43;1.88;;;11.80;99.90;;;;;;5048324;28;20275;-62
2022/03/27 08:59:44;;;;;;;4.53;1.40;;;12.00;99.90;;;;;;5044903;28;20033;-62
2022/03/27 09:02:13;;;;;;;4.20;1.63;;;12.10;98.30;;;;;;5044824;28;20033;-63
2022/03/27 09:04:40;;;;;;;3.65;1.77;;;12.20;97.30;;;;;;5036544;28;20033;-63
2022/03/27 09:07:06;;;;;;;4.35;1.48;;;12.20;96.90;;;;;;5036315;28;20052;-63
2022/03/27 09:09:33;;;;;;;2.65;1.23;;;12.20;97.80;;;;;;5037493;28;20037;-62
2022/03/27 09:12:02;;;;;;;3.88;1.80;;;12.20;98.60;;;;;;5038902;28;20029;-61
2022/03/27 09:14:30;;;;;;;4.55;2.25;;;12.20;98.70;;;;;;5038709;28;20033;-62
2022/03/27 09:17:07;;;;;;;3.40;1.67;;;12.20;98.60;;;;;;5038049;28;20029;-63
2022/03/27 09:19:40;;;;;;;2.25;1.27;;;12.40;98.00;;;;;;5037495;28;20046;-63
2022/03/27 09:22:34;;;;;;;4.82;1.65;;;12.40;98.90;;;;;;5036936;28;20033;-61
2022/03/27 09:25:02;;;;;;;3.97;1.88;;;12.60;98.20;;;;;;5045403;28;20041;-63
2022/03/27 09:27:36;;;;;;;3.20;1.63;;;12.60;97.60;;;;;;5048281;28;20099;-62
2022/03/27 09:30:09;;;;;;;2.60;1.13;;;12.70;96.70;;;;;;5048571;28;20037;-62
2022/03/27 09:32:35;;;;;;;3.45;1.90;;;12.80;96.00;;;;;;5030946;28;20028;-62
2022/03/27 09:35:11;;;;;;;3.13;1.30;;;12.80;96.20;;;;;;5049248;28;20029;-62
2022/03/27 09:37:38;;;;;;;3.63;1.23;;;12.90;93.70;;;;;;5031553;28;20623;-64
2022/03/27 09:40:09;;;;;;;2.85;1.20;;;12.90;94.30;;;;;;5031103;28;20032;-63
2022/03/27 09:42:40;;;;;;;3.85;1.67;;;13.00;93.40;;;;;;5050221;28;20408;-62
2022/03/27 09:45:25;;;;;;;2.25;1.20;;;13.10;93.20;;;;;;5049670;28;20025;-64
2022/03/27 09:47:55;;;;;;;4.00;1.55;;;13.00;92.80;;;;;;5047846;28;20139;-62
2022/03/27 09:50:37;;;;;;;3.15;1.42;;;13.00;92.70;;;;;;5048639;28;20052;-62
2022/03/27 09:53:26;;;;;;;3.22;1.40;;;13.00;92.60;;;;;;5049700;28;20040;-62
2022/03/27 09:55:58;;;;;;;3.30;1.38;;;13.00;92.90;;;;;;5049442;28;20076;-61
2022/03/27 09:58:42;;;;;;;3.20;1.52;;;13.00;92.60;;;;;;5052803;28;20043;-61
2022/03/27 10:01:14;;;;;;;4.40;1.50;;;12.90;93.10;;;;;;5052306;28;20037;-62
2022/03/27 10:03:59;;;;;;;5.05;1.48;;;13.10;93.20;;;;;;5030753;28;20647;-62
2022/03/27 10:06:45;;;;;;;4.07;1.83;;;13.20;93.60;;;;;;5050594;28;20492;-62
2022/03/27 10:09:13;;;;;;;2.95;1.58;;;13.30;94.40;;;;;;5048990;28;20036;-61
2022/03/27 10:11:40;;;;;;;3.50;1.73;;;13.20;94.20;;;;;;5047948;28;20222;-62
2022/03/27 10:14:07;;;;;;;3.60;1.67;;;13.40;95.00;;;;;;5035252;28;20503;-63
2022/03/27 10:16:35;;;;;;;2.95;1.38;;;13.60;95.40;;;;;;5052687;28;20033;-63
2022/03/27 10:19:12;;;;;;;3.85;1.55;;;13.60;93.60;;;;;;5052977;28;20039;-62
2022/03/27 10:21:43;;;;;;;3.83;1.83;;;13.70;92.70;;;;;;5047683;28;20041;-64
2022/03/27 10:24:12;;;;;;;3.00;1.30;;;13.70;92.90;;;;;;5031102;28;20436;-62
2022/03/27 10:26:39;;;;;;;2.70;1.25;;;13.60;91.60;;;;;;5052436;28;20030;-62
2022/03/27 10:29:07;;;;;;;2.95;1.10;;;13.60;90.60;;;;;;5053733;28;20048;-62
2022/03/27 10:31:33;;;;;;;4.68;2.03;;;13.60;83.30;;;;;;5052413;28;20099;-67
2022/03/27 10:34:00;;;;;;;4.28;1.67;;;13.60;80.70;;;;;;5053165;28;20033;-61
2022/03/27 10:36:58;;;;;;;5.55;1.08;;;13.60;80.70;;;;;;5053691;28;20052;-64
2022/03/27 10:39:42;;;;;;;5.18;1.17;;;13.50;79.90;;;;;;5044836;28;20033;-62
2022/03/27 10:42:30;;;;;;;3.60;1.20;;;13.50;79.30;;;;;;5044837;28;20040;-62
2022/03/27 10:45:14;;;;;;;5.32;1.65;;;13.60;80.50;;;;;;5049238;28;20045;-62
2022/03/27 10:47:39;;;;;;;4.18;1.15;;;13.70;81.90;;;;;;5029509;28;20040;-62
2022/03/27 10:50:05;;;;;;;2.95;1.55;;;13.60;84.30;;;;;;5046700;28;20040;-62
2022/03/27 10:52:31;;;;;;;4.60;1.00;;;13.60;83.20;;;;;;5043242;28;20038;-63
2022/03/27 10:55:01;;;;;;;3.83;1.00;;;13.70;82.00;;;;;;5047661;28;20048;-62
2022/03/27 10:57:32;;;;;;;4.00;1.42;;;13.80;79.70;;;;;;5045853;28;20382;-61
2022/03/27 10:59:58;;;;;;;2.50;0.90;;;13.80;78.40;;;;;;5035834;28;20029;-64
2022/03/27 11:02:41;;;;;;;5.32;1.65;;;13.90;76.10;;;;;;5053894;28;20118;-64
2022/03/27 11:05:07;;;;;;;2.00;0.88;;;14.00;76.10;;;;;;5050801;28;20037;-63
2022/03/27 11:07:33;;;;;;;5.32;1.40;;;14.00;75.80;;;;;;5052412;28;20044;-61
2022/03/27 11:09:58;;;;;;;2.28;1.10;;;14.10;74.80;;;;;;5053608;28;20071;-62
2022/03/27 11:12:24;;;;;;;4.75;1.15;;;14.10;74.80;;;;;;5051200;28;20171;-62
2022/03/27 11:14:52;;;;;;;4.38;1.23;;;14.10;73.70;;;;;;5052109;28;20036;-62
2022/03/27 11:17:31;;;;;;;3.05;1.55;;;14.10;72.80;;;;;;5049521;28;20489;-62
2022/03/27 11:19:57;;;;;;;4.00;1.35;;;14.10;72.90;;;;;;5046246;28;20024;-61
2022/03/27 11:22:43;;;;;;;3.60;0.75;;;14.10;72.10;;;;;;5038723;28;20128;-64
2022/03/27 11:25:33;;;;;;;3.25;0.90;;;14.10;71.60;;;;;;5032294;28;20033;-62
2022/03/27 11:28:11;;;;;;;6.97;1.10;;;14.20;68.70;;;;;;5049050;28;20052;-62
2022/03/27 11:30:48;;;;;;;2.40;0.82;;;14.20;67.80;;;;;;5045347;28;20041;-63
2022/03/27 11:33:13;;;;;;;1.42;0.80;;;14.20;69.40;;;;;;5027738;28;20507;-60
2022/03/27 11:35:41;;;;;;;2.65;1.00;;;14.30;69.50;;;;;;5037333;28;20064;-62
2022/03/27 11:38:23;;;;;;;2.13;0.80;;;14.40;67.70;;;;;;5045142;28;20516;-61
2022/03/27 11:40:48;;;;;;;3.85;1.10;;;14.40;68.00;;;;;;5043292;28;20029;-61
2022/03/27 11:43:27;;;;;;;6.07;1.05;;;14.40;68.80;;;;;;5044152;28;20041;-61
2022/03/27 11:45:55;;;;;;;2.95;0.80;;;14.50;65.70;;;;;;5042731;28;20735;-61
2022/03/27 11:48:20;;;;;;;4.88;1.33;;;14.50;64.80;;;;;;5024090;28;20067;-63
2022/03/27 11:50:46;;;;;;;2.47;0.70;;;14.50;65.20;;;;;;5041569;28;20064;-62
2022/03/27 11:53:12;;;;;;;2.17;0.60;;;14.60;64.80;;;;;;5044188;28;20677;-61
2022/03/27 11:55:39;;;;;;;2.33;0.68;;;14.70;62.90;;;;;;5042343;28;20044;-61
2022/03/27 11:58:07;;;;;;;3.67;1.02;;;14.70;61.60;;;;;;5042295;28;20116;-62
2022/03/27 12:00:41;;;;;;;3.47;0.70;;;14.80;61.40;;;;;;5038954;28;20437;-60
2022/03/27 12:03:23;;;;;;;2.65;0.70;;;14.80;61.70;;;;;;5042940;28;20041;-61
2022/03/27 12:05:50;;;;;;;2.38;0.82;;;14.80;63.90;;;;;;5024842;28;20037;-61
2022/03/27 12:08:17;;;;;;;4.32;0.80;;;14.90;60.30;;;;;;5042742;28;20506;-67
2022/03/27 12:10:56;;;;;;;1.67;0.80;;;14.90;59.40;;;;;;5041174;28;20029;-61
2022/03/27 12:13:22;;;;;;;3.28;0.93;;;15.00;58.90;;;;;;5042479;28;20040;-63
2022/03/27 12:15:49;;;;;;;2.35;0.80;;;15.00;59.30;;;;;;5026691;28;20091;-62
2022/03/27 12:18:39;;;;;;;1.85;0.50;;;15.00;59.30;;;;;;5041296;28;20033;-61
2022/03/27 12:21:15;;;;;;;2.80;0.90;;;15.00;58.70;;;;;;5035922;28;20598;-63
2022/03/27 12:23:41;;;;;;;2.30;0.60;;;15.00;59.40;;;;;;5042992;28;20493;-61
2022/03/27 12:32:25;;;;;;;4.32;0.88;;;15.20;60.10;;;;;;4995569;28;20041;-61
2022/03/27 12:34:57;;;;;;;2.95;0.82;;;15.30;59.10;;;;;;5041611;28;20489;-61
2022/03/27 12:37:26;;;;;;;3.40;0.65;;;15.30;57.60;;;;;;5024112;28;20123;-61
2022/03/27 12:39:51;;;;;;;1.50;0.63;;;15.30;57.80;;;;;;5024178;28;20124;-61
2022/03/27 12:42:46;;;;;;;8.77;1.00;;;15.30;59.90;;;;;;5042965;28;20045;-61
2022/03/27 12:45:19;;;;;;;3.28;0.80;;;15.30;59.20;;;;;;5044343;28;20057;-61
2022/03/27 12:47:50;;;;;;;1.23;0.40;;;15.30;57.80;;;;;;5042805;28;20068;-62
2022/03/27 12:50:29;;;;;;;2.17;0.73;;;15.30;58.00;;;;;;5023152;28;20087;-61
2022/03/27 12:52:57;;;;;;;4.50;0.60;;;15.40;57.70;;;;;;5025624;28;20131;-61
2022/03/27 12:55:26;;;;;;;2.40;0.90;;;15.40;58.90;;;;;;5042200;28;20566;-61
2022/03/27 12:57:56;;;;;;;4.07;0.70;;;15.50;60.00;;;;;;5040129;28;20041;-63
2022/03/27 13:00:32;;;;;;;1.80;0.68;;;15.50;60.80;;;;;;5035573;28;20120;-63
2022/03/27 13:03:22;;;;;;;1.85;0.98;;;15.60;57.60;;;;;;5040383;28;20040;-60
2022/03/27 13:05:56;;;;;;;6.95;0.80;;;15.50;58.50;;;;;;5043568;28;20682;-61
2022/03/27 13:08:40;;;;;;;5.38;0.85;;;15.50;59.30;;;;;;5036511;28;20179;-62
2022/03/27 13:11:07;;;;;;;4.15;0.90;;;15.50;59.30;;;;;;5037205;28;20033;-63